createdAt,value
2017-10-12T00:02:03.037Z,15.78
2017-10-12T00:04:30.890Z,15.84
2017-10-12T00:06:58.344Z,15.84
2017-10-12T00:09:25.724Z,15.85
2017-10-12T00:11:53.191Z,15.86
2017-10-12T00:14:20.911Z,15.79
2017-10-12T00:16:48.324Z,15.71
2017-10-12T00:19:15.724Z,15.73
2017-10-12T00:21:43.160Z,15.74
2017-10-12T00:24:10.580Z,15.84
2017-10-12T00:26:37.985Z,15.77
2017-10-12T00:29:05.418Z,15.71
2017-10-12T00:31:32.807Z,15.72
2017-10-12T00:34:00.237Z,15.79
2017-10-12T00:36:27.628Z,15.63
2017-10-12T00:38:55.044Z,15.50
2017-10-12T00:41:22.447Z,15.43
2017-10-12T00:43:49.905Z,15.41
2017-10-12T00:46:17.300Z,15.40
2017-10-12T00:48:44.715Z,15.40
2017-10-12T00:51:12.143Z,15.42
2017-10-12T00:53:39.582Z,15.47
2017-10-12T00:56:07.039Z,15.44
2017-10-12T00:58:34.443Z,15.33
2017-10-12T01:01:01.909Z,15.47
2017-10-12T01:03:29.320Z,15.34
2017-10-12T01:05:56.747Z,15.31
2017-10-12T01:08:24.139Z,15.29
2017-10-12T01:10:51.579Z,15.23
2017-10-12T01:13:18.987Z,15.21
2017-10-12T01:15:46.393Z,15.15
2017-10-12T01:18:13.960Z,15.18
2017-10-12T01:20:41.375Z,15.18
2017-10-12T01:23:08.809Z,15.19
2017-10-12T01:25:36.206Z,15.17
2017-10-12T01:28:03.623Z,15.22
2017-10-12T01:30:31.019Z,15.21
2017-10-12T01:32:58.456Z,15.23
2017-10-12T01:35:25.856Z,15.09
2017-10-12T01:37:53.262Z,15.03
2017-10-12T01:40:20.730Z,15.05
2017-10-12T01:42:48.129Z,15.05
2017-10-12T01:45:15.555Z,15.10
2017-10-12T01:47:42.967Z,15.18
2017-10-12T01:50:10.400Z,15.27
2017-10-12T01:52:37.809Z,15.38
2017-10-12T01:55:05.226Z,15.41
2017-10-12T01:57:32.631Z,15.42
2017-10-12T02:00:00.068Z,15.43
2017-10-12T02:02:27.501Z,15.32
2017-10-12T02:04:55.032Z,15.28
2017-10-12T02:07:22.430Z,15.31
2017-10-12T02:09:49.863Z,15.32
2017-10-12T02:12:17.308Z,15.24
2017-10-12T02:14:44.701Z,15.22
2017-10-12T02:17:12.136Z,15.22
2017-10-12T02:19:39.533Z,15.29
2017-10-12T02:22:06.969Z,15.43
2017-10-12T02:24:34.383Z,15.56
2017-10-12T02:27:01.807Z,15.67
2017-10-12T02:29:29.212Z,15.75
2017-10-12T02:31:56.621Z,15.78
2017-10-12T02:34:24.015Z,15.79
2017-10-12T02:36:51.452Z,15.83
2017-10-12T02:39:18.869Z,15.72
2017-10-12T02:41:46.288Z,15.72
2017-10-12T02:44:13.724Z,15.81
2017-10-12T02:46:41.133Z,15.86
2017-10-12T02:49:08.555Z,15.89
2017-10-12T02:51:35.944Z,15.89
2017-10-12T02:54:03.380Z,15.95
2017-10-12T02:56:30.768Z,15.98
2017-10-12T02:58:58.236Z,15.95
2017-10-12T03:01:25.630Z,15.92
2017-10-12T03:03:53.067Z,15.94
2017-10-12T03:06:20.460Z,15.87
2017-10-12T03:08:47.885Z,15.98
2017-10-12T03:11:15.267Z,16.00
2017-10-12T03:13:42.702Z,16.00
2017-10-12T03:16:10.119Z,16.04
2017-10-12T03:18:37.510Z,15.79
2017-10-12T03:21:04.927Z,16.09
2017-10-12T03:23:32.332Z,16.02
2017-10-12T03:25:59.751Z,16.02
2017-10-12T03:28:27.146Z,16.07
2017-10-12T03:30:54.581Z,16.08
2017-10-12T03:33:21.966Z,16.06
2017-10-12T03:35:49.421Z,15.97
2017-10-12T03:38:16.820Z,15.96
2017-10-12T03:40:44.231Z,15.95
2017-10-12T03:43:11.619Z,15.92
2017-10-12T03:45:39.039Z,15.91
2017-10-12T03:48:06.472Z,15.92
2017-10-12T03:50:33.877Z,15.96
2017-10-12T03:53:01.312Z,15.97
2017-10-12T03:55:28.695Z,15.95
2017-10-12T03:57:56.115Z,16.05
2017-10-12T04:00:23.515Z,16.01
2017-10-12T04:02:50.938Z,15.96
2017-10-12T04:05:18.362Z,16.01
2017-10-12T04:07:45.771Z,15.96
2017-10-12T04:10:13.199Z,16.01
2017-10-12T04:12:40.664Z,15.88
2017-10-12T04:15:08.056Z,16.04
2017-10-12T04:17:35.468Z,15.92
2017-10-12T04:20:02.888Z,15.96
2017-10-12T04:22:30.324Z,15.95
2017-10-12T04:24:57.731Z,15.95
2017-10-12T04:27:25.136Z,15.90
2017-10-12T04:29:52.575Z,15.88
2017-10-12T04:32:20.005Z,15.91
2017-10-12T04:34:47.435Z,15.88
2017-10-12T04:37:14.815Z,15.82
2017-10-12T04:39:42.248Z,15.78
2017-10-12T04:42:09.639Z,15.78
2017-10-12T04:44:37.059Z,15.68
2017-10-12T04:47:04.451Z,15.61
2017-10-12T04:49:31.883Z,15.60
2017-10-12T04:51:59.314Z,15.64
2017-10-12T04:54:26.723Z,15.65
2017-10-12T04:56:54.164Z,15.57
2017-10-12T04:59:21.572Z,15.62
2017-10-12T05:01:49.011Z,15.61
2017-10-12T05:04:16.438Z,15.61
2017-10-12T05:06:43.867Z,15.63
2017-10-12T05:09:11.250Z,15.63
2017-10-12T05:11:38.712Z,15.59
2017-10-12T05:14:06.111Z,15.53
2017-10-12T05:16:33.594Z,15.48
2017-10-12T05:19:01.015Z,15.44
2017-10-12T05:21:28.420Z,15.47
2017-10-12T05:23:55.864Z,15.45
2017-10-12T05:26:23.256Z,15.45
2017-10-12T05:28:50.673Z,15.49
2017-10-12T05:31:18.090Z,15.53
2017-10-12T05:33:45.601Z,15.55
2017-10-12T05:36:15.484Z,15.52
2017-10-12T05:38:44.380Z,15.46
2017-10-12T05:41:11.772Z,15.38
2017-10-12T05:43:39.220Z,15.35
2017-10-12T05:46:06.607Z,15.35
2017-10-12T05:48:34.013Z,15.42
2017-10-12T05:51:01.451Z,15.47
2017-10-12T05:53:28.920Z,15.50
2017-10-12T05:55:56.327Z,15.49
2017-10-12T05:58:23.745Z,15.54
2017-10-12T06:00:51.164Z,15.57
2017-10-12T06:03:18.555Z,15.57
2017-10-12T06:05:45.983Z,15.59
2017-10-12T06:08:13.412Z,15.63
2017-10-12T06:10:40.884Z,15.68
2017-10-12T06:13:08.271Z,15.71
2017-10-12T06:15:35.723Z,15.70
2017-10-12T06:18:03.911Z,15.66
2017-10-12T06:20:31.328Z,15.66
2017-10-12T06:22:58.811Z,15.60
2017-10-12T06:25:26.215Z,15.68
2017-10-12T06:27:53.648Z,15.73
2017-10-12T06:30:22.530Z,15.82
2017-10-12T06:32:49.944Z,15.78
2017-10-12T06:35:17.348Z,15.74
2017-10-12T06:37:44.780Z,15.80
2017-10-12T06:40:12.196Z,15.68
2017-10-12T06:42:39.630Z,15.89
2017-10-12T06:45:07.074Z,15.82
2017-10-12T06:47:34.499Z,15.90
2017-10-12T06:50:01.952Z,15.88
2017-10-12T06:52:29.349Z,15.93
2017-10-12T06:54:56.763Z,15.97
2017-10-12T06:57:24.152Z,15.99
2017-10-12T06:59:51.587Z,15.91
2017-10-12T07:02:18.985Z,15.96
2017-10-12T07:04:46.403Z,15.92
2017-10-12T07:07:13.792Z,15.87
2017-10-12T07:09:41.342Z,15.70
2017-10-12T07:12:08.781Z,15.73
2017-10-12T07:14:36.180Z,15.69
2017-10-12T07:17:03.632Z,15.67
2017-10-12T07:19:31.572Z,15.61
2017-10-12T07:21:58.988Z,15.69
2017-10-12T07:24:27.202Z,15.71
2017-10-12T07:26:54.599Z,15.62
2017-10-12T07:29:22.019Z,15.73
2017-10-12T07:31:49.480Z,15.71
2017-10-12T07:34:16.926Z,15.73
2017-10-12T07:36:44.340Z,15.80
2017-10-12T07:39:12.096Z,15.79
2017-10-12T07:41:39.482Z,15.77
2017-10-12T07:44:06.927Z,15.75
2017-10-12T07:46:34.322Z,15.83
2017-10-12T07:49:02.730Z,15.91
2017-10-12T07:51:30.150Z,15.87
2017-10-12T07:53:57.604Z,15.91
2017-10-12T07:56:25.027Z,15.91
2017-10-12T07:58:52.430Z,16.02
2017-10-12T08:01:19.872Z,16.00
2017-10-12T08:03:47.289Z,15.99
2017-10-12T08:06:14.769Z,15.96
2017-10-12T08:08:42.188Z,15.99
2017-10-12T08:11:09.648Z,16.05
2017-10-12T08:13:37.044Z,16.09
2017-10-12T08:16:04.491Z,16.00
2017-10-12T08:18:31.884Z,16.11
2017-10-12T08:20:59.324Z,16.10
2017-10-12T08:23:26.765Z,16.27
2017-10-12T08:25:54.247Z,16.31
2017-10-12T08:28:21.724Z,16.38
2017-10-12T08:30:49.167Z,16.46
2017-10-12T08:33:16.596Z,16.55
2017-10-12T08:35:44.039Z,16.47
2017-10-12T08:38:11.495Z,16.70
2017-10-12T08:40:38.884Z,16.81
2017-10-12T08:43:06.352Z,16.85
2017-10-12T08:45:33.764Z,16.98
2017-10-12T08:48:01.229Z,17.04
2017-10-12T08:50:28.635Z,17.06
2017-10-12T08:52:56.176Z,17.17
2017-10-12T08:55:23.556Z,17.19
2017-10-12T08:57:50.976Z,17.31
2017-10-12T09:00:18.371Z,17.36
2017-10-12T09:02:45.812Z,17.39
2017-10-12T09:05:13.231Z,17.34
2017-10-12T09:07:40.651Z,17.30
2017-10-12T09:10:08.091Z,17.28
2017-10-12T09:12:48.594Z,17.29
2017-10-12T09:15:16.083Z,17.32
2017-10-12T09:17:43.472Z,17.08
2017-10-12T09:20:10.928Z,17.12
2017-10-12T09:22:38.344Z,17.10
2017-10-12T09:25:05.801Z,17.10
2017-10-12T09:27:33.212Z,16.95
2017-10-12T09:30:00.624Z,17.06
2017-10-12T09:32:28.122Z,17.14
2017-10-12T09:34:55.607Z,17.09
2017-10-12T09:37:23.246Z,17.14
2017-10-12T09:39:50.808Z,17.15
2017-10-12T09:42:20.952Z,17.19
2017-10-12T09:44:48.368Z,17.27
2017-10-12T09:47:15.840Z,17.38
2017-10-12T09:49:43.274Z,17.46
2017-10-12T09:52:12.528Z,17.47
2017-10-12T09:54:40.037Z,17.62
2017-10-12T09:57:07.500Z,17.73
2017-10-12T09:59:34.917Z,17.80
2017-10-12T10:02:02.653Z,17.69
2017-10-12T10:04:30.189Z,17.69
2017-10-12T10:06:57.615Z,17.72
2017-10-12T10:09:25.041Z,17.71
2017-10-12T10:11:52.638Z,17.73
2017-10-12T10:14:20.057Z,17.66
2017-10-12T10:16:47.445Z,17.77
2017-10-12T10:19:14.885Z,17.87
2017-10-12T10:21:42.297Z,17.97
2017-10-12T10:24:09.766Z,18.01
2017-10-12T10:26:37.183Z,17.97
2017-10-12T10:29:04.613Z,17.98
2017-10-12T10:31:32.007Z,18.07
2017-10-12T10:36:36.264Z,18.21
2017-10-12T10:39:03.712Z,18.21
2017-10-12T10:41:31.156Z,18.23
2017-10-12T10:43:58.549Z,18.26
2017-10-12T10:46:25.995Z,18.25
2017-10-12T10:48:53.409Z,18.30
2017-10-12T10:51:20.844Z,18.31
2017-10-12T10:53:48.252Z,18.35
2017-10-12T10:56:15.671Z,18.43
2017-10-12T10:58:43.104Z,18.36
2017-10-12T11:01:10.527Z,18.31
2017-10-12T11:03:37.935Z,18.20
2017-10-12T11:06:05.358Z,18.22
2017-10-12T11:08:32.751Z,18.30
2017-10-12T11:11:00.220Z,18.39
2017-10-12T11:13:27.607Z,18.32
2017-10-12T11:15:55.033Z,18.30
2017-10-12T11:18:22.453Z,18.34
2017-10-12T11:20:49.886Z,18.30
2017-10-12T11:23:17.329Z,18.38
2017-10-12T11:25:44.722Z,18.45
2017-10-12T11:28:12.972Z,18.62
2017-10-12T11:30:40.426Z,18.85
2017-10-12T11:33:07.812Z,19.01
2017-10-12T11:35:35.256Z,19.13
2017-10-12T11:38:03.290Z,19.20
2017-10-12T11:40:30.704Z,19.24
2017-10-12T11:42:58.112Z,19.22
2017-10-12T11:45:25.584Z,19.04
2017-10-12T11:47:53.010Z,19.00
2017-10-12T11:50:20.428Z,18.91
2017-10-12T11:52:47.843Z,18.80
2017-10-12T11:55:15.416Z,18.80
2017-10-12T11:57:42.871Z,18.93
2017-10-12T12:00:10.271Z,18.82
2017-10-12T12:02:37.757Z,18.81
2017-10-12T12:05:05.238Z,18.69
2017-10-12T12:07:32.704Z,18.81
2017-10-12T12:10:00.182Z,18.65
2017-10-12T12:12:27.656Z,18.54
2017-10-12T12:14:55.052Z,18.45
2017-10-12T12:17:22.499Z,18.57
2017-10-12T12:19:49.926Z,18.69
2017-10-12T12:22:17.363Z,18.86
2017-10-12T12:24:44.790Z,18.95
2017-10-12T12:27:13.030Z,19.18
2017-10-12T12:29:40.467Z,19.43
2017-10-12T12:32:07.920Z,19.46
2017-10-12T12:34:35.338Z,19.43
2017-10-12T12:37:02.773Z,19.41
2017-10-12T12:39:30.264Z,19.31
2017-10-12T12:41:57.691Z,19.35
2017-10-12T12:44:25.140Z,19.35
2017-10-12T12:46:52.570Z,19.34
2017-10-12T12:49:20.110Z,19.26
2017-10-12T12:51:47.526Z,19.14
2017-10-12T12:54:15.426Z,19.12
2017-10-12T12:56:42.860Z,19.11
2017-10-12T12:59:10.293Z,18.95
2017-10-12T13:01:37.702Z,18.97
2017-10-12T13:04:05.162Z,18.97
2017-10-12T13:06:32.613Z,18.98
2017-10-12T13:09:00.045Z,19.08
2017-10-12T13:11:27.488Z,19.10
2017-10-12T13:13:54.930Z,19.07
2017-10-12T13:16:22.372Z,19.11
2017-10-12T13:18:49.824Z,19.24
2017-10-12T13:21:17.302Z,19.35
2017-10-12T13:23:44.789Z,19.30
2017-10-12T13:26:12.286Z,19.29
2017-10-12T13:28:39.774Z,19.45
2017-10-12T13:31:07.205Z,19.51
2017-10-12T13:33:34.627Z,19.60
2017-10-12T13:36:02.111Z,19.64
2017-10-12T13:38:29.511Z,19.61
2017-10-12T13:40:56.980Z,19.77
2017-10-12T13:43:24.439Z,19.87
2017-10-12T13:45:51.924Z,19.87
2017-10-12T13:48:19.502Z,19.80
2017-10-12T13:50:49.390Z,19.75
2017-10-12T13:53:16.990Z,19.64
2017-10-12T13:55:44.692Z,19.52
2017-10-12T13:58:12.257Z,19.45
2017-10-12T14:01:09.943Z,19.53
2017-10-12T14:03:37.532Z,19.66
2017-10-12T14:06:06.160Z,19.80
2017-10-12T14:08:33.590Z,19.98
2017-10-12T14:11:00.979Z,20.08
2017-10-12T14:13:28.427Z,20.20
2017-10-12T14:15:55.866Z,20.27
2017-10-12T14:18:24.171Z,20.27
2017-10-12T14:20:51.592Z,20.18
2017-10-12T14:23:19.013Z,20.11
2017-10-12T14:25:46.455Z,20.01
2017-10-12T14:28:13.839Z,20.13
2017-10-12T14:30:41.316Z,20.14
2017-10-12T14:33:08.720Z,19.98
2017-10-12T14:35:36.164Z,19.95
2017-10-12T14:38:03.552Z,19.91
2017-10-12T14:40:30.996Z,19.85
2017-10-12T14:42:58.408Z,19.76
2017-10-12T14:45:27.277Z,19.74
2017-10-12T14:47:54.669Z,19.71
2017-10-12T14:50:22.101Z,19.85
2017-10-12T14:52:49.521Z,19.79
2017-10-12T14:55:16.959Z,19.86
2017-10-12T14:57:44.380Z,19.78
2017-10-12T15:00:12.596Z,19.61
2017-10-12T15:02:40.037Z,19.46
2017-10-12T15:05:07.454Z,19.20
2017-10-12T15:07:34.876Z,19.54
2017-10-12T15:10:02.388Z,19.58
2017-10-12T15:12:29.829Z,19.43
2017-10-12T15:14:57.239Z,19.69
2017-10-12T15:17:24.867Z,19.67
2017-10-12T15:19:52.265Z,19.66
2017-10-12T15:22:19.725Z,19.76
2017-10-12T15:24:47.884Z,19.70
2017-10-12T15:27:15.297Z,19.66
2017-10-12T15:29:42.708Z,19.74
2017-10-12T15:32:10.219Z,19.68
2017-10-12T15:34:37.660Z,19.70
2017-10-12T15:37:05.060Z,19.59
2017-10-12T15:39:32.503Z,19.63
2017-10-12T15:42:00.763Z,19.61
2017-10-12T15:44:28.204Z,19.65
2017-10-12T15:46:55.628Z,19.65
2017-10-12T15:49:23.054Z,19.41
2017-10-12T15:51:50.992Z,19.29
2017-10-12T15:54:18.932Z,19.39
2017-10-12T15:56:46.369Z,19.38
2017-10-12T15:59:13.762Z,19.30
2017-10-12T16:01:41.172Z,19.25
2017-10-12T16:04:08.584Z,19.20
2017-10-12T16:06:36.074Z,19.18
2017-10-12T16:09:03.481Z,19.19
2017-10-12T16:11:31.635Z,19.11
2017-10-12T16:13:59.039Z,19.09
2017-10-12T16:16:26.511Z,19.03
2017-10-12T16:18:53.903Z,19.05
2017-10-12T16:21:21.303Z,18.99
2017-10-12T16:23:48.752Z,18.97
2017-10-12T16:26:16.133Z,18.89
2017-10-12T16:28:43.548Z,18.92
2017-10-12T16:31:10.940Z,18.82
2017-10-12T16:33:38.365Z,18.82
2017-10-12T16:36:05.760Z,18.68
2017-10-12T16:38:33.193Z,18.48
2017-10-12T16:41:00.608Z,18.63
2017-10-12T16:43:28.062Z,18.67
2017-10-12T16:45:55.467Z,18.60
2017-10-12T16:48:22.915Z,18.54
2017-10-12T16:53:17.724Z,18.40
2017-10-12T16:55:45.149Z,18.42
2017-10-12T16:58:12.541Z,18.36
2017-10-12T17:00:40.524Z,18.32
2017-10-12T17:03:07.912Z,18.24
2017-10-12T17:05:35.406Z,18.23
2017-10-12T17:08:02.869Z,18.24
2017-10-12T17:10:30.284Z,18.18
2017-10-12T17:12:57.725Z,18.11
2017-10-12T17:15:25.141Z,18.15
2017-10-12T17:17:52.618Z,18.14
2017-10-12T17:20:20.106Z,18.11
2017-10-12T17:22:47.622Z,18.14
2017-10-12T17:25:15.155Z,18.04
2017-10-12T17:27:42.720Z,18.01
2017-10-12T17:30:10.273Z,17.97
2017-10-12T17:32:37.833Z,17.98
2017-10-12T17:35:05.480Z,17.88
2017-10-12T17:37:33.176Z,17.86
2017-10-12T17:40:00.879Z,17.83
2017-10-12T17:42:28.458Z,17.84
2017-10-12T17:44:56.127Z,17.76
2017-10-12T17:47:23.806Z,17.82
2017-10-12T17:49:51.485Z,17.80
2017-10-12T17:52:19.156Z,17.79
2017-10-12T17:54:46.808Z,17.73
2017-10-12T17:57:14.511Z,17.63
2017-10-12T17:59:42.227Z,17.61
2017-10-12T18:02:09.895Z,17.62
2017-10-12T18:07:05.468Z,17.59
2017-10-12T18:09:32.996Z,17.64
2017-10-12T18:12:30.517Z,17.65
2017-10-12T18:14:28.314Z,17.61
2017-10-12T18:16:55.846Z,17.50
2017-10-12T18:19:23.399Z,17.53
2017-10-12T18:21:50.898Z,17.54
2017-10-12T18:24:18.534Z,17.65
2017-10-12T18:26:46.207Z,17.61
2017-10-12T18:29:13.856Z,17.57
2017-10-12T18:31:41.493Z,17.55
2017-10-12T18:34:09.055Z,17.46
2017-10-12T18:36:36.530Z,17.45
2017-10-12T18:39:03.988Z,17.41
2017-10-12T18:41:31.459Z,17.34
2017-10-12T18:43:58.926Z,17.32
2017-10-12T18:46:26.386Z,17.36
2017-10-12T18:48:53.897Z,17.46
2017-10-12T18:51:21.346Z,17.53
2017-10-12T18:53:48.803Z,17.57
2017-10-12T18:56:16.212Z,17.56
2017-10-12T18:58:43.637Z,17.56
2017-10-12T19:01:11.069Z,17.54
2017-10-12T19:03:38.506Z,17.53
2017-10-12T19:06:05.941Z,17.45
2017-10-12T19:08:33.398Z,17.47
2017-10-12T19:11:00.796Z,17.51
2017-10-12T19:13:28.208Z,17.45
2017-10-12T19:15:55.669Z,17.31
2017-10-12T19:18:23.059Z,17.28
2017-10-12T19:20:50.515Z,17.30
2017-10-12T19:23:19.239Z,17.31
2017-10-12T19:25:46.698Z,17.27
2017-10-12T19:28:43.557Z,17.21
2017-10-12T19:30:41.541Z,17.20
2017-10-12T19:33:09.009Z,17.13
2017-10-12T19:35:36.387Z,17.08
2017-10-12T19:38:03.784Z,17.11
2017-10-12T19:40:31.226Z,17.09
2017-10-12T19:42:58.610Z,17.13
2017-10-12T19:45:26.026Z,17.10
2017-10-12T19:47:53.416Z,17.08
2017-10-12T19:50:20.845Z,17.15
2017-10-12T19:52:48.260Z,17.13
2017-10-12T19:55:16.464Z,17.14
2017-10-12T19:57:43.888Z,17.11
2017-10-12T20:00:11.313Z,17.06
2017-10-12T20:02:38.724Z,17.08
2017-10-12T20:05:07.570Z,17.08
2017-10-12T20:07:35.001Z,17.09
2017-10-12T20:10:02.461Z,17.08
2017-10-12T20:12:29.931Z,16.92
2017-10-12T20:14:58.108Z,17.00
2017-10-12T20:17:25.492Z,16.95
2017-10-12T20:19:53.893Z,16.89
2017-10-12T20:22:22.104Z,16.84
2017-10-12T20:24:49.586Z,16.87
2017-10-12T20:27:16.996Z,16.96
2017-10-12T20:29:44.767Z,16.96
2017-10-12T20:32:12.163Z,16.82
2017-10-12T20:34:39.613Z,16.84
2017-10-12T20:37:07.028Z,16.84
2017-10-12T20:39:34.492Z,16.72
2017-10-12T20:42:16.886Z,16.63
2017-10-12T20:44:29.349Z,16.72
2017-10-12T20:49:24.323Z,16.68
2017-10-12T20:51:51.783Z,16.75
2017-10-12T20:54:19.216Z,16.86
2017-10-12T20:56:46.616Z,16.82
2017-10-12T20:59:14.147Z,16.81
2017-10-12T21:01:41.585Z,16.84
2017-10-12T21:04:09.017Z,16.75
2017-10-12T21:06:36.461Z,16.71
2017-10-12T21:09:03.884Z,16.73
2017-10-12T21:11:31.287Z,16.74
2017-10-12T21:13:58.730Z,16.60
2017-10-12T21:16:26.899Z,16.49
2017-10-12T21:18:54.323Z,16.47
2017-10-12T21:21:21.731Z,16.45
2017-10-12T21:23:49.213Z,16.49
2017-10-12T21:26:16.637Z,16.55
2017-10-12T21:28:44.038Z,16.63
2017-10-12T21:31:11.457Z,16.66
2017-10-12T21:33:38.855Z,16.61
2017-10-12T21:36:06.275Z,16.53
2017-10-12T21:38:33.685Z,16.67
2017-10-12T21:41:01.159Z,16.65
2017-10-12T21:43:28.578Z,16.58
2017-10-12T21:45:55.992Z,16.44
2017-10-12T21:48:23.728Z,16.40
2017-10-12T21:50:51.168Z,16.25
2017-10-12T21:53:18.577Z,16.26
2017-10-12T21:55:46.015Z,16.10
2017-10-12T21:58:13.439Z,16.04
2017-10-12T22:00:40.859Z,16.05
2017-10-12T22:03:08.288Z,16.06
2017-10-12T22:05:35.707Z,15.97
2017-10-12T22:08:03.115Z,15.87
2017-10-12T22:10:30.543Z,15.80
2017-10-12T22:12:57.961Z,15.79
2017-10-12T22:15:25.368Z,15.76
2017-10-12T22:17:52.801Z,15.76
2017-10-12T22:20:20.223Z,15.82
2017-10-12T22:22:47.654Z,15.86
2017-10-12T22:25:15.052Z,15.90
2017-10-12T22:27:42.472Z,15.94
2017-10-12T22:30:09.931Z,16.00
2017-10-12T22:32:37.383Z,16.11
2017-10-12T22:35:04.792Z,16.18
2017-10-12T22:37:32.205Z,16.21
2017-10-12T22:39:59.631Z,16.21
2017-10-12T22:42:27.052Z,16.14
2017-10-12T22:44:55.075Z,16.14
2017-10-12T22:47:22.464Z,16.17
2017-10-12T22:49:49.920Z,16.11
2017-10-12T22:52:17.351Z,16.07
2017-10-12T22:54:44.800Z,16.25
2017-10-12T22:57:12.188Z,16.16
2017-10-12T22:59:39.615Z,16.04
2017-10-12T23:02:07.020Z,16.05
2017-10-12T23:04:34.455Z,16.02
2017-10-12T23:07:01.869Z,16.02
2017-10-12T23:09:29.280Z,16.05
2017-10-12T23:11:56.700Z,15.96
2017-10-12T23:14:24.123Z,15.99
2017-10-12T23:16:51.533Z,15.99
2017-10-12T23:19:19.027Z,15.98
2017-10-12T23:21:46.459Z,15.97
2017-10-12T23:24:13.888Z,16.02
2017-10-12T23:26:41.324Z,15.93
2017-10-12T23:29:08.716Z,15.91
2017-10-12T23:31:36.144Z,15.82
2017-10-12T23:34:03.554Z,15.83
2017-10-12T23:36:30.986Z,15.86
2017-10-12T23:38:58.395Z,15.91
2017-10-12T23:41:25.799Z,15.87
2017-10-12T23:43:53.252Z,15.60
2017-10-12T23:46:20.640Z,15.65
2017-10-12T23:48:48.070Z,15.60
2017-10-12T23:51:15.513Z,15.57
2017-10-12T23:53:42.952Z,15.65
2017-10-12T23:56:10.360Z,15.78
2017-10-12T23:58:37.784Z,15.87
